Time;durP1;ratioP1;P1;durP2;ratioP2;P2;SDS_P1;SDS_P2;PMS_P1;PMS_P2;Temp;Humidity;BMP_temperature;BMP_pressure;BME280_temperature;BME280_humidity;BME280_pressure;Samples;Min_cycle;Max_cycle;Signal;HPM_P1;HPM_P2
2022/12/19 00:01:17;;;;;;;;;10.00;9.00;;;;;20.60;27.78;101319.00;5059645;28;45233;-46
2022/12/19 00:03:48;;;;;;;;;12.75;11.00;;;;;20.59;27.90;101317.28;5041670;28;45346;-41
2022/12/19 00:06:14;;;;;;;;;10.75;10.00;;;;;20.60;27.92;101342.69;5041093;28;45246;-43
2022/12/19 00:08:41;;;;;;;;;13.00;10.25;;;;;20.58;27.64;101331.38;5073976;28;45238;-43
2022/12/19 00:11:07;;;;;;;;;11.25;9.75;;;;;20.60;27.98;101342.69;5073707;28;45719;-45
2022/12/19 00:13:32;;;;;;;;;10.25;9.75;;;;;20.60;28.02;101324.25;5072173;28;45152;-44
2022/12/19 00:16:03;;;;;;;;;9.75;8.75;;;;;20.61;28.04;101322.50;5074854;28;45224;-45
2022/12/19 00:18:28;;;;;;;;;10.00;10.00;;;;;20.58;27.58;101323.47;5078979;28;47042;-47
2022/12/19 00:20:55;;;;;;;;;10.25;9.75;;;;;20.61;28.11;101328.59;5078833;28;44708;-43
2022/12/19 00:23:21;;;;;;;;;12.00;10.25;;;;;20.59;28.03;101324.34;5060340;28;45383;-41
2022/12/19 00:25:46;;;;;;;;;11.25;9.50;;;;;20.60;28.12;101320.78;5058526;28;45472;-43
2022/12/19 00:28:11;;;;;;;;;12.33;10.00;;;;;20.61;27.84;101319.84;5057005;28;67151;-44
2022/12/19 00:30:37;;;;;;;;;7.00;7.00;;;;;20.59;27.85;101319.91;5057194;28;59473;-41
2022/12/19 00:33:02;;;;;;;;;13.67;7.67;;;;;20.60;28.29;101313.72;5058343;28;45403;-42
2022/12/19 00:35:27;;;;;;;;;9.25;8.50;;;;;20.60;27.66;101313.72;5059074;28;44841;-44
2022/12/19 00:37:53;;;;;;;;;9.00;9.00;;;;;20.61;28.10;101312.78;5064705;28;46171;-43
2022/12/19 00:40:18;;;;;;;;;11.50;9.25;;;;;20.61;27.83;101310.16;5066497;28;45447;-45
2022/12/19 00:42:43;;;;;;;;;9.75;8.25;;;;;20.62;28.08;101316.28;5065597;28;45402;-44
2022/12/19 00:45:09;;;;;;;;;12.00;9.50;;;;;20.62;27.71;101305.72;5059181;28;45411;-41
2022/12/19 00:47:34;;;;;;;;;11.25;8.75;;;;;20.62;27.92;101298.72;5067338;28;45571;-43
2022/12/19 00:49:59;;;;;;;;;8.00;8.00;;;;;20.62;28.17;101290.81;5064928;28;45749;-43
2022/12/19 00:52:25;;;;;;;;;8.67;7.33;;;;;20.60;28.42;101297.91;5056838;28;54933;-43
2022/12/19 00:54:50;;;;;;;;;8.00;8.00;;;;;20.63;28.28;101289.88;5057335;28;52775;-43
2022/12/19 00:57:15;;;;;;;;;8.50;8.50;;;;;20.63;28.35;101283.75;5057715;28;46274;-44
2022/12/19 00:59:41;;;;;;;;;10.00;8.33;;;;;20.64;27.96;101282.81;5056511;28;63527;-45
2022/12/19 01:02:06;;;;;;;;;6.50;6.00;;;;;20.62;28.40;101282.91;5074915;28;45339;-44
2022/12/19 01:04:31;;;;;;;;;11.00;8.50;;;;;20.63;28.05;101278.47;5070335;28;44761;-42
2022/12/19 01:06:58;;;;;;;;;8.25;6.50;;;;;20.62;28.08;101275.00;5057194;28;46366;-43
2022/12/19 01:09:23;;;;;;;;;8.00;7.00;;;;;20.61;28.37;101273.28;5057966;28;45412;-41
2022/12/19 01:14:33;;;;;;;;;10.00;9.00;;;;;20.64;27.98;101280.19;5082041;28;44756;-41
2022/12/19 01:16:58;;;;;;;;;4.00;3.75;;;;;20.63;27.97;101284.59;5059423;28;46381;-43
2022/12/19 01:19:25;;;;;;;;;10.00;8.33;;;;;20.64;28.36;101288.94;5056687;28;53280;-43
2022/12/19 01:21:51;;;;;;;;;6.50;6.50;;;;;20.64;27.90;101288.94;5039372;28;45369;-41
2022/12/19 01:24:16;;;;;;;;;6.75;6.75;;;;;20.64;28.35;101283.69;5056840;28;45439;-44
2022/12/19 01:26:41;;;;;;;;;7.50;7.50;;;;;20.64;28.04;101281.06;5056772;28;52480;-41
2022/12/19 01:29:07;;;;;;;;;7.00;7.00;;;;;20.63;28.01;101283.75;5057233;28;45209;-43
2022/12/19 01:31:32;;;;;;;;;8.00;7.00;;;;;20.65;28.43;101280.13;5057137;28;45213;-42
2022/12/19 01:34:00;;;;;;;;;8.50;7.25;;;;;20.65;28.04;101285.41;5061171;28;45217;-43
2022/12/19 01:36:26;;;;;;;;;9.25;9.00;;;;;20.64;28.39;101286.31;5061796;28;46074;-42
2022/12/19 01:38:56;;;;;;;;;8.25;7.50;;;;;20.64;28.02;101286.31;5044191;28;45305;-41
2022/12/19 01:41:21;;;;;;;;;9.25;8.00;;;;;20.63;28.54;101279.34;5057796;28;45265;-44
2022/12/19 01:44:06;;;;;;;;;8.50;7.00;;;;;20.66;28.60;101280.97;5057773;28;45538;-43
2022/12/19 01:46:50;;;;;;;;;10.00;7.00;;;;;20.64;28.54;101278.41;5059184;28;45445;-40
2022/12/19 01:49:26;;;;;;;;;7.50;7.00;;;;;20.66;28.10;101273.94;5060522;28;45889;-41
2022/12/19 01:51:57;;;;;;;;;7.75;7.00;;;;;20.66;28.39;101273.94;5060534;28;45481;-42
2022/12/19 01:54:28;;;;;;;;;6.25;6.00;;;;;20.65;28.03;101269.59;5060852;28;45269;-45
2022/12/19 01:56:57;;;;;;;;;7.50;7.50;;;;;20.68;28.10;101271.22;5060063;28;45543;-42
2022/12/19 01:59:30;;;;;;;;;9.00;8.25;;;;;20.67;28.48;101278.25;5061668;28;45787;-42
2022/12/19 02:02:06;;;;;;;;;7.00;7.00;;;;;20.67;28.66;101277.41;5061805;28;45354;-43
2022/12/19 02:04:33;;;;;;;;;6.50;6.50;;;;;20.68;28.20;101277.31;5042189;28;45400;-44
2022/12/19 02:07:00;;;;;;;;;7.25;6.00;;;;;20.69;28.46;101289.56;5059456;28;47073;-41
2022/12/19 02:09:26;;;;;;;;;7.75;5.75;;;;;20.68;28.77;101287.03;5062628;28;45208;-43
2022/12/19 02:11:52;;;;;;;;;8.50;7.50;;;;;20.68;28.78;101287.84;5075568;28;45221;-46
2022/12/19 02:14:17;;;;;;;;;9.25;7.00;;;;;20.69;28.65;101283.47;5076533;28;45587;-41
2022/12/19 02:17:23;;;;;;;;;6.00;5.25;;;;;20.68;28.46;101282.59;5076289;28;46205;-46
2022/12/19 02:20:29;;;;;;;;;6.75;6.75;;;;;20.69;28.35;101279.03;5082900;28;45331;-48
2022/12/19 02:23:13;;;;;;;;;7.00;6.00;;;;;20.70;28.50;101285.16;5080405;28;45214;-43
2022/12/19 02:25:57;;;;;;;;;7.50;7.00;;;;;20.68;28.45;101271.22;5078233;28;44772;-42
2022/12/19 02:28:28;;;;;;;;;6.25;6.25;;;;;20.69;28.52;101273.75;5066263;28;45260;-42
2022/12/19 02:30:56;;;;;;;;;6.00;6.00;;;;;20.68;28.39;101276.47;5074733;28;45757;-41
2022/12/19 02:33:39;;;;;;;;;6.25;6.25;;;;;20.70;28.61;101283.38;5062557;28;45422;-41
2022/12/19 02:36:23;;;;;;;;;7.00;5.25;;;;;20.70;28.52;101288.63;5074838;28;44727;-44
2022/12/19 02:39:04;;;;;;;;;8.00;6.25;;;;;20.70;28.51;101286.00;5071421;28;46572;-44
2022/12/19 02:41:50;;;;;;;;;5.75;5.75;;;;;20.68;28.61;101277.31;5065696;28;45523;-44
2022/12/19 02:44:27;;;;;;;;;7.00;7.00;;;;;20.70;28.74;101286.00;5044693;28;45320;-41
2022/12/19 02:46:56;;;;;;;;;8.75;7.00;;;;;20.71;28.85;101281.59;5060502;28;45340;-44
2022/12/19 02:49:22;;;;;;;;;9.25;8.00;;;;;20.72;28.84;101282.44;5041672;28;48234;-44
2022/12/19 02:51:47;;;;;;;;;8.00;7.00;;;;;20.69;28.42;101279.03;5062071;28;45342;-45
2022/12/19 02:54:14;;;;;;;;;7.25;6.25;;;;;20.72;28.57;101282.44;5042910;28;45234;-41
2022/12/19 02:57:00;;;;;;;;;6.00;6.00;;;;;20.72;29.00;101274.53;5059491;28;45534;-43
2022/12/19 03:00:01;;;;;;;;;5.75;5.75;;;;;20.70;28.78;101270.19;5068128;28;46437;-41
2022/12/19 03:03:04;;;;;;;;;6.00;6.00;;;;;20.72;28.44;101266.66;5068960;28;45768;-43
2022/12/19 03:05:30;;;;;;;;;6.25;6.25;;;;;20.73;28.69;101278.88;5061619;28;45218;-43
2022/12/19 03:08:21;;;;;;;;;5.25;5.25;;;;;20.71;28.80;101276.34;5073540;28;45170;-43
2022/12/19 03:11:07;;;;;;;;;7.50;4.25;;;;;20.73;29.02;101270.97;5072834;28;47898;-44
2022/12/19 03:13:38;;;;;;;;;5.25;5.25;;;;;20.73;28.96;101266.56;5068240;28;45760;-43
2022/12/19 03:16:07;;;;;;;;;5.75;5.75;;;;;20.74;29.08;101267.44;5060383;28;45496;-40
2022/12/19 03:18:33;;;;;;;;;6.00;6.00;;;;;20.74;28.84;101267.44;5044321;28;45598;-43
2022/12/19 03:21:05;;;;;;;;;6.00;6.00;;;;;20.75;28.98;101274.44;5059996;28;45616;-42
2022/12/19 03:23:31;;;;;;;;;6.00;6.00;;;;;20.75;29.11;101266.53;5063314;28;45381;-43
2022/12/19 03:26:03;;;;;;;;;4.50;4.50;;;;;20.75;29.09;101272.63;5066589;28;45424;-44
2022/12/19 03:28:49;;;;;;;;;5.25;5.25;;;;;20.74;29.23;101267.44;5067080;28;45494;-43
2022/12/19 03:31:18;;;;;;;;;6.00;5.00;;;;;20.77;28.75;101275.22;5061293;28;47217;-42
2022/12/19 03:33:46;;;;;;;;;8.00;5.75;;;;;20.77;29.04;101269.94;5070655;28;45353;-41
2022/12/19 03:36:17;;;;;;;;;7.50;5.75;;;;;20.75;28.73;101269.16;5081429;28;44688;-44
2022/12/19 03:38:45;;;;;;;;;2.50;2.25;;;;;20.74;28.64;101249.00;5067739;28;45462;-42
2022/12/19 03:41:13;;;;;;;;;7.75;7.00;;;;;20.78;29.10;101266.38;5064758;28;46433;-44
2022/12/19 03:43:42;;;;;;;;;6.00;6.00;;;;;20.78;29.26;101266.38;5062406;28;45403;-46
2022/12/19 03:46:21;;;;;;;;;5.25;5.25;;;;;20.78;28.97;101259.31;5065284;28;45351;-43
2022/12/19 03:48:49;;;;;;;;;6.50;6.50;;;;;20.78;28.90;101258.50;5066605;28;45237;-42
2022/12/19 03:51:45;;;;;;;;;7.50;6.00;;;;;20.78;28.89;101256.69;5067423;28;45874;-42
2022/12/19 03:54:25;;;;;;;;;6.25;6.00;;;;;20.79;29.39;101254.91;5071711;28;45384;-43
2022/12/19 03:57:05;;;;;;;;;5.50;5.00;;;;;20.75;29.23;101251.56;5081297;28;44825;-42
2022/12/19 03:59:38;;;;;;;;;6.00;6.00;;;;;20.79;29.07;101257.53;5081597;28;44753;-42
2022/12/19 04:02:04;;;;;;;;;6.75;5.25;;;;;20.79;29.43;101261.03;5061415;28;45532;-46
2022/12/19 04:04:34;;;;;;;;;5.00;4.25;;;;;20.79;29.55;101262.78;5061646;28;45398;-44
2022/12/19 04:07:02;;;;;;;;;5.00;5.00;;;;;20.80;29.08;101267.13;5062079;28;45312;-43
2022/12/19 04:09:29;;;;;;;;;4.75;4.00;;;;;20.80;29.38;101272.41;5064429;28;45562;-42
2022/12/19 04:12:05;;;;;;;;;6.75;6.25;;;;;20.80;29.65;101269.78;5047772;28;46337;-46
2022/12/19 04:14:34;;;;;;;;;6.00;6.00;;;;;20.81;29.05;101266.22;5065082;28;45826;-43
2022/12/19 04:16:59;;;;;;;;;6.75;5.00;;;;;20.82;29.22;101270.56;5064117;28;45340;-45
2022/12/19 04:19:39;;;;;;;;;5.67;5.00;;;;;20.82;29.38;101273.19;5069146;28;45315;-45
2022/12/19 04:22:14;;;;;;;;;6.00;6.00;;;;;20.83;29.13;101272.25;5062320;28;45367;-44
2022/12/19 04:24:43;;;;;;;;;5.25;4.25;;;;;20.82;29.13;101279.34;5064356;28;45310;-43
2022/12/19 04:27:11;;;;;;;;;4.00;4.00;;;;;20.82;29.58;101279.34;5073362;28;45485;-42
2022/12/19 04:29:38;;;;;;;;;4.00;4.00;;;;;20.83;29.60;101282.81;5074169;28;45278;-43
2022/12/19 04:32:05;;;;;;;;;4.00;4.00;;;;;20.84;29.69;101284.50;5063295;28;46347;-44
2022/12/19 04:34:31;;;;;;;;;4.25;4.25;;;;;20.82;29.47;101267.94;5058613;28;45848;-47
2022/12/19 04:36:57;;;;;;;;;5.75;5.75;;;;;20.84;29.60;101271.34;5060364;28;45434;-44
2022/12/19 04:39:23;;;;;;;;;6.00;6.00;;;;;20.87;29.65;101271.19;5058746;28;45434;-41
2022/12/19 04:41:48;;;;;;;;;6.25;4.00;;;;;20.89;29.70;101273.75;5057888;28;46201;-46
2022/12/19 04:44:14;;;;;;;;;7.33;5.33;;;;;20.93;29.82;101270.88;5056461;28;65252;-44
2022/12/19 04:46:39;;;;;;;;;3.75;3.75;;;;;20.96;29.63;101276.00;5057198;28;45321;-44
2022/12/19 04:49:04;;;;;;;;;4.67;4.67;;;;;20.99;29.51;101265.31;5039243;28;52897;-41
2022/12/19 04:51:30;;;;;;;;;7.00;4.00;;;;;21.02;29.67;101274.84;5057624;28;46395;-45
2022/12/19 04:53:56;;;;;;;;;8.50;8.50;;;;;21.02;29.40;101280.09;5022881;28;45394;-46
2022/12/19 04:56:23;;;;;;;;;14.25;14.25;;;;;21.05;29.25;101268.56;5074521;28;45224;-45
2022/12/19 04:58:49;;;;;;;;;12.50;12.50;;;;;21.05;29.57;101279.09;5068357;28;45353;-44
2022/12/19 05:01:14;;;;;;;;;16.67;12.00;;;;;21.04;29.72;101277.38;5058186;28;50241;-42
2022/12/19 05:03:40;;;;;;;;;12.75;11.75;;;;;21.04;29.51;101272.13;5059873;28;45363;-44
2022/12/19 05:06:13;;;;;;;;;8.75;8.50;;;;;21.03;29.53;101270.41;5057234;28;45371;-41
2022/12/19 05:08:40;;;;;;;;;6.00;6.00;;;;;20.99;29.51;101265.31;5057278;28;45392;-45
2022/12/19 05:11:07;;;;;;;;;5.50;5.50;;;;;21.00;29.63;101267.00;5057143;28;46478;-45
2022/12/19 05:13:32;;;;;;;;;9.25;6.75;;;;;20.99;29.60;101260.03;5057474;28;45429;-42
2022/12/19 05:16:00;;;;;;;;;6.00;6.00;;;;;21.04;29.63;101266.84;5057429;28;45379;-43
2022/12/19 05:18:26;;;;;;;;;7.25;6.00;;;;;21.03;30.02;101268.63;5059051;28;45402;-42
2022/12/19 05:20:52;;;;;;;;;8.50;7.25;;;;;21.05;29.39;101265.91;5065344;28;46555;-42
2022/12/19 05:23:17;;;;;;;;;5.00;5.00;;;;;21.04;29.63;101265.06;5067125;28;45718;-44
2022/12/19 05:25:42;;;;;;;;;7.50;7.50;;;;;21.04;29.63;101264.22;5076400;28;45266;-45
2022/12/19 05:28:08;;;;;;;;;7.00;7.00;;;;;21.04;29.75;101259.81;5080164;28;45653;-45
2022/12/19 05:30:33;;;;;;;;;5.00;5.00;;;;;21.03;29.64;101266.00;5065802;28;49385;-42
2022/12/19 05:32:59;;;;;;;;;6.50;5.00;;;;;21.00;29.57;101261.72;5061470;28;45489;-46
2022/12/19 05:35:26;;;;;;;;;5.00;5.00;;;;;21.01;29.98;101260.78;5042494;28;45399;-43
2022/12/19 05:37:52;;;;;;;;;7.50;6.50;;;;;20.97;29.63;101261.03;5060377;28;45344;-42
2022/12/19 05:40:17;;;;;;;;;6.00;5.25;;;;;20.95;30.08;101269.03;5060299;28;45448;-45
2022/12/19 05:42:43;;;;;;;;;7.75;6.00;;;;;20.92;30.08;101271.81;5060192;28;45465;-41
2022/12/19 05:45:08;;;;;;;;;6.00;5.50;;;;;20.89;30.11;101276.38;5060452;28;45438;-45
2022/12/19 05:47:34;;;;;;;;;6.00;6.00;;;;;20.85;29.77;101268.63;5060739;28;45212;-43
2022/12/19 05:49:59;;;;;;;;;8.00;6.50;;;;;20.81;29.86;101267.09;5060117;28;45978;-44
2022/12/19 05:52:24;;;;;;;;;5.75;5.75;;;;;20.78;29.71;101261.97;5060143;28;45236;-41
2022/12/19 05:54:50;;;;;;;;;6.50;6.00;;;;;20.79;29.91;101263.66;5060218;28;45237;-44
2022/12/19 05:57:15;;;;;;;;;5.50;4.00;;;;;20.79;30.18;101268.94;5075953;28;45154;-43
2022/12/19 05:59:41;;;;;;;;;6.00;5.00;;;;;20.80;29.94;101264.50;5079718;28;46310;-43
2022/12/19 06:02:06;;;;;;;;;5.00;5.00;;;;;20.79;30.10;101257.53;5064727;28;45264;-41
2022/12/19 06:04:32;;;;;;;;;4.50;4.00;;;;;20.78;30.05;101261.97;5061337;28;45257;-42
2022/12/19 06:06:57;;;;;;;;;5.00;5.00;;;;;20.78;30.47;101266.38;5059903;28;45661;-44
2022/12/19 06:09:23;;;;;;;;;4.75;4.00;;;;;20.78;29.93;101271.66;5059771;28;46135;-44
2022/12/19 06:11:48;;;;;;;;;5.00;5.00;;;;;20.77;30.31;101276.06;5061224;28;45244;-44
2022/12/19 06:14:13;;;;;;;;;5.00;5.00;;;;;20.75;30.22;101271.81;5061654;28;45461;-40
2022/12/19 06:16:39;;;;;;;;;6.75;5.00;;;;;20.73;30.55;101270.97;5068679;28;45411;-48
2022/12/19 06:19:05;;;;;;;;;5.00;5.00;;;;;20.76;30.32;101268.25;5073684;28;45637;-43
2022/12/19 06:21:30;;;;;;;;;5.25;4.25;;;;;20.78;30.09;101269.03;5074232;28;45318;-47
2022/12/19 06:23:55;;;;;;;;;4.00;4.00;;;;;20.77;30.54;101272.59;5063831;28;45431;-49
2022/12/19 06:26:21;;;;;;;;;4.25;4.25;;;;;20.77;30.68;101272.59;5063019;28;45339;-41
2022/12/19 06:28:48;;;;;;;;;4.75;4.00;;;;;20.72;30.07;101269.28;5061615;28;46945;-47
2022/12/19 06:31:15;;;;;;;;;7.25;4.50;;;;;20.70;30.58;101270.19;5070982;28;45117;-46
2022/12/19 06:33:40;;;;;;;;;4.00;4.00;;;;;20.69;30.17;101268.50;5077376;28;44659;-43
2022/12/19 06:36:27;;;;;;;;;6.25;4.00;;;;;20.70;30.22;101270.19;5064979;28;45174;-43
2022/12/19 06:38:54;;;;;;;;;7.25;4.25;;;;;20.69;30.22;101270.28;5061629;28;47201;-44
2022/12/19 06:44:06;;;;;;;;;7.25;4.50;;;;;20.67;30.72;101266.88;5042263;28;45521;-47
2022/12/19 06:46:33;;;;;;;;;5.50;5.00;;;;;20.67;30.36;101267.72;5043966;28;45445;-47
2022/12/19 06:48:59;;;;;;;;;7.75;5.00;;;;;20.66;30.32;101267.78;5043490;28;47047;-44
2022/12/19 06:51:24;;;;;;;;;4.00;3.00;;;;;20.63;30.38;101253.00;5041245;28;45906;-44
2022/12/19 06:53:50;;;;;;;;;6.00;4.25;;;;;20.63;30.52;101260.91;5050673;28;45245;-43
2022/12/19 06:56:17;;;;;;;;;4.00;4.00;;;;;20.61;30.20;101257.50;5057025;28;45227;-45
2022/12/19 06:58:42;;;;;;;;;4.75;4.75;;;;;20.62;30.32;101255.69;5040547;28;46156;-43
2022/12/19 07:01:16;;;;;;;;;3.00;3.00;;;;;20.60;30.47;101249.69;5039943;28;45229;-45
2022/12/19 07:03:43;;;;;;;;;6.50;5.00;;;;;20.59;30.71;101263.78;5039780;28;45364;-42
2022/12/19 07:06:09;;;;;;;;;5.00;5.00;;;;;20.56;30.49;101256.84;5023124;28;45558;-44
2022/12/19 07:08:34;;;;;;;;;6.25;5.00;;;;;20.52;30.63;101257.94;5026041;28;45894;-43
2022/12/19 07:10:59;;;;;;;;;5.25;4.75;;;;;20.54;30.76;101267.47;5042600;28;45355;-44
2022/12/19 07:13:26;;;;;;;;;4.67;4.67;;;;;20.50;30.69;101263.28;5040683;28;51248;-42
2022/12/19 07:15:56;;;;;;;;;4.25;4.00;;;;;20.47;30.98;101258.16;5045275;28;45454;-43
2022/12/19 07:18:21;;;;;;;;;6.25;4.00;;;;;20.46;30.76;101260.84;5046416;28;47368;-43
2022/12/19 07:20:46;;;;;;;;;4.25;4.25;;;;;20.43;30.66;101268.94;5047526;28;45269;-43
2022/12/19 07:23:17;;;;;;;;;5.50;5.50;;;;;20.38;30.68;101264.72;5044573;28;45262;-43
2022/12/19 07:25:43;;;;;;;;;6.00;5.75;;;;;20.36;31.21;101286.78;5042156;28;45386;-43
2022/12/19 07:28:08;;;;;;;;;6.00;5.00;;;;;20.34;31.01;101276.31;5038985;28;46212;-40
2022/12/19 07:30:34;;;;;;;;;1.00;0.50;;;;;20.33;31.08;101281.66;5020585;28;45417;-47
2022/12/19 07:32:59;;;;;;;;;7.25;4.25;;;;;20.32;31.14;101280.81;5038515;28;45346;-44
2022/12/19 07:35:25;;;;;;;;;4.25;4.25;;;;;20.32;31.22;101283.47;5038364;28;45320;-45
2022/12/19 07:37:50;;;;;;;;;4.00;4.00;;;;;20.31;30.96;101279.13;5041284;28;46639;-42
2022/12/19 07:40:16;;;;;;;;;5.75;5.75;;;;;20.31;31.31;101284.38;5039929;28;45313;-42
2022/12/19 07:42:42;;;;;;;;;6.00;5.00;;;;;20.27;31.27;101282.81;5045864;28;45280;-43
2022/12/19 07:45:08;;;;;;;;;2.75;2.75;;;;;20.26;31.24;101283.72;5026611;28;45622;-46
2022/12/19 07:47:34;;;;;;;;;4.00;4.00;;;;;20.21;31.13;101275.22;5046587;28;46408;-43
2022/12/19 07:50:00;;;;;;;;;4.00;4.00;;;;;20.18;30.88;101278.81;5047308;28;45487;-42
2022/12/19 07:52:25;;;;;;;;;4.00;4.00;;;;;20.15;30.97;101279.00;5047461;28;45365;-43
2022/12/19 07:54:51;;;;;;;;;4.00;4.00;;;;;20.12;30.71;101281.75;5045596;28;45490;-43
2022/12/19 07:57:16;;;;;;;;;6.00;4.00;;;;;20.10;31.23;101294.13;5044606;28;49970;-42
2022/12/19 07:59:43;;;;;;;;;4.00;4.00;;;;;20.06;30.88;101296.03;5048269;28;45341;-47
2022/12/19 08:02:08;;;;;;;;;4.00;4.00;;;;;20.06;31.14;101301.31;5053322;28;44760;-45
2022/12/19 08:04:34;;;;;;;;;7.00;4.75;;;;;20.04;31.22;101297.88;5052296;28;44876;-43
2022/12/19 08:06:59;;;;;;;;;5.00;3.50;;;;;20.02;31.42;101306.78;5044377;28;46493;-45
2022/12/19 08:09:26;;;;;;;;;4.00;4.00;;;;;19.99;31.33;101305.16;5044254;28;45336;-46
2022/12/19 08:11:52;;;;;;;;;3.50;3.50;;;;;19.96;30.93;101310.53;5048318;28;45301;-42
2022/12/19 08:14:18;;;;;;;;;3.00;3.00;;;;;19.94;31.20;101317.66;5044778;28;45673;-43
2022/12/19 08:16:43;;;;;;;;;2.25;2.25;;;;;19.92;31.37;101306.34;5038343;28;46098;-42
2022/12/19 08:19:09;;;;;;;;;5.00;3.00;;;;;19.88;31.45;101305.63;5049779;28;50361;-43
2022/12/19 08:21:34;;;;;;;;;5.00;3.75;;;;;19.87;30.96;101305.72;5054522;28;45325;-43
2022/12/19 08:23:59;;;;;;;;;3.67;3.67;;;;;19.85;31.06;101302.25;5039307;28;45444;-45
2022/12/19 08:26:25;;;;;;;;;3.75;3.75;;;;;19.83;31.15;101299.69;5038313;28;46441;-44
2022/12/19 08:28:55;;;;;;;;;4.50;3.00;;;;;19.81;31.02;101305.94;5038542;28;45421;-43
2022/12/19 08:31:23;;;;;;;;;5.50;4.25;;;;;19.81;31.26;101311.19;5043195;28;45323;-43
2022/12/19 08:33:50;;;;;;;;;4.00;4.00;;;;;19.80;31.33;101314.75;5049923;28;45337;-41
2022/12/19 12:15:39;;;;;;;;;13.00;9.25;;;;;19.78;32.49;101239.41;5054037;28;45535;-46
2022/12/19 12:18:51;;;;;;;;;10.00;7.25;;;;;19.82;32.62;101241.88;5074030;28;45465;-44
2022/12/19 12:21:28;;;;;;;;;13.25;8.50;;;;;19.85;32.39;101239.13;5065607;28;45334;-42
2022/12/19 12:24:19;;;;;;;;;13.00;10.75;;;;;19.87;32.52;101222.38;5058046;28;46272;-43
2022/12/19 12:26:57;;;;;;;;;9.50;6.50;;;;;19.92;32.69;101217.75;5062992;28;45866;-44
2022/12/19 12:29:41;;;;;;;;;9.00;6.75;;;;;20.00;32.74;101216.53;5077616;27;45438;-42
2022/12/19 12:32:13;;;;;;;;;11.25;7.25;;;;;20.02;32.89;101212.06;5076120;28;45456;-40
2022/12/19 12:35:09;;;;;;;;;9.25;8.00;;;;;20.04;32.84;101203.16;5078483;27;46339;-41
2022/12/19 12:37:51;;;;;;;;;9.50;7.00;;;;;20.02;32.76;101197.13;5080069;28;45878;-41
2022/12/19 12:40:22;;;;;;;;;8.00;7.00;;;;;20.00;33.27;101195.50;5081383;27;45424;-46
2022/12/19 12:43:05;;;;;;;;;8.00;7.00;;;;;20.00;32.83;101203.38;5081816;28;45603;-41
2022/12/19 12:45:40;;;;;;;;;9.50;7.75;;;;;20.02;33.63;101197.13;5078626;27;46225;-44
2022/12/19 12:48:26;;;;;;;;;8.25;7.25;;;;;20.03;33.14;101200.63;5083743;27;45313;-39
2022/12/19 12:50:53;;;;;;;;;7.50;6.00;;;;;20.04;33.41;101186.53;5081670;27;45269;-39
2022/12/19 12:53:25;;;;;;;;;8.25;6.75;;;;;20.11;33.12;101185.31;5101522;27;45518;-39
2022/12/19 12:55:54;;;;;;;;;10.50;7.00;;;;;20.18;33.27;101177.97;5102117;27;46192;-43
2022/12/19 12:58:47;;;;;;;;;8.00;6.50;;;;;20.34;32.93;101184.19;5101546;27;45124;-41
2022/12/19 13:01:16;;;;;;;;;9.00;6.25;;;;;20.44;32.57;101167.97;5085226;28;45359;-42
2022/12/19 13:03:50;;;;;;;;;9.75;6.00;;;;;20.48;32.46;101174.75;5089087;27;45621;-43
2022/12/19 13:06:26;;;;;;;;;7.25;4.25;;;;;20.49;32.75;101163.28;5083499;27;45525;-46
2022/12/19 13:09:01;;;;;;;;;7.25;6.25;;;;;20.51;32.82;101164.06;5095719;27;45857;-42
2022/12/19 13:14:32;;;;;;;;;6.50;5.50;;;;;20.57;32.56;101169.03;5087828;28;45218;-44
2022/12/19 13:16:59;;;;;;;;;9.00;5.75;;;;;20.54;32.06;101159.50;5084439;28;45662;-41
2022/12/19 13:19:27;;;;;;;;;6.00;5.25;;;;;20.58;32.30;101156.72;5077416;27;46052;-43
2022/12/19 13:22:08;;;;;;;;;8.75;7.00;;;;;20.59;32.12;101154.00;5076467;27;45306;-42
2022/12/19 13:24:41;;;;;;;;;5.25;5.25;;;;;20.58;32.20;101154.09;5075060;28;45456;-44
2022/12/19 13:27:19;;;;;;;;;6.50;4.50;;;;;20.55;32.13;101158.56;5076393;27;45644;-44
2022/12/19 13:29:59;;;;;;;;;9.00;4.00;;;;;20.57;32.52;101158.50;5075893;27;45898;-42
2022/12/19 13:32:25;;;;;;;;;9.00;6.25;;;;;20.57;32.91;101163.75;5076302;27;45280;-43
2022/12/19 13:34:59;;;;;;;;;4.50;4.00;;;;;20.57;32.67;101173.44;5076468;27;45570;-42
2022/12/19 13:37:39;;;;;;;;;6.75;6.75;;;;;20.59;33.76;101177.69;5076299;27;46366;-44
2022/12/19 13:40:13;;;;;;;;;7.25;4.50;;;;;20.59;34.20;101177.69;5076409;27;45338;-43
2022/12/19 13:46:04;;;;;;;;;5.75;5.00;;;;;20.60;33.92;101184.69;5082846;28;45520;-44
2022/12/19 13:48:34;;;;;;;;;5.00;4.00;;;;;20.60;33.93;101179.41;5080425;27;45474;-43
2022/12/19 13:51:05;;;;;;;;;3.50;3.00;;;;;20.62;33.57;101176.69;5080578;27;45906;-44
2022/12/19 13:53:31;;;;;;;;;4.00;4.00;;;;;20.62;34.27;101182.81;5097314;28;45390;-43
2022/12/19 13:56:15;;;;;;;;;4.25;1.00;;;;;20.64;34.35;101159.03;5094964;27;45522;-42
2022/12/19 13:58:51;;;;;;;;;4.50;4.50;;;;;20.63;33.81;101141.53;5086671;27;46645;-45
2022/12/19 14:01:29;;;;;;;;;5.75;4.00;;;;;20.64;33.94;101128.31;5079383;27;45882;-46
2022/12/19 14:03:56;;;;;;;;;3.00;2.25;;;;;20.64;33.74;101148.50;5082831;27;45384;-43
2022/12/19 14:06:26;;;;;;;;;4.00;4.00;;;;;20.65;33.86;101153.72;5082592;27;45630;-44
2022/12/19 14:09:04;;;;;;;;;3.50;3.00;;;;;20.67;33.29;101148.34;5082568;27;46610;-45
2022/12/19 14:11:29;;;;;;;;;4.75;3.00;;;;;20.67;33.19;101145.72;5084232;27;45698;-46
2022/12/19 14:16:45;;;;;;;;;0.25;0.00;;;;;20.68;33.20;101148.25;5079552;28;45346;-44
2022/12/19 14:19:22;;;;;;;;;2.25;2.25;;;;;20.67;33.14;101145.72;5079223;27;46393;-43
2022/12/19 14:21:48;;;;;;;;;4.75;2.25;;;;;20.66;32.94;101131.72;5078964;27;45487;-49
2022/12/19 14:24:18;;;;;;;;;4.25;2.00;;;;;20.68;33.37;101136.88;5079012;27;45229;-41
2022/12/19 14:27:07;;;;;;;;;2.25;2.00;;;;;20.68;33.38;101139.53;5077776;28;45588;-44
2022/12/19 14:29:47;;;;;;;;;4.50;3.00;;;;;20.69;32.92;101141.22;5078273;28;47371;-41
2022/12/19 14:32:14;;;;;;;;;5.50;3.00;;;;;20.69;32.96;101149.97;5077738;28;45347;-46
2022/12/19 14:34:41;;;;;;;;;4.25;3.00;;;;;20.70;33.11;101153.47;5077757;28;45399;-45
2022/12/19 14:37:26;;;;;;;;;5.00;3.50;;;;;20.69;33.52;101147.34;5079447;27;45340;-44
2022/12/19 14:39:58;;;;;;;;;4.50;4.00;;;;;20.70;33.36;101148.19;5082686;27;46393;-44
2022/12/19 14:45:35;;;;;;;;;3.50;2.25;;;;;20.69;33.70;101139.44;5089772;28;45368;-41
2022/12/19 14:48:01;;;;;;;;;4.00;2.50;;;;;20.72;33.51;101150.75;5070417;28;45210;-48
2022/12/19 14:50:35;;;;;;;;;2.00;2.00;;;;;20.76;33.50;101171.63;5061441;28;46952;-44
2022/12/19 14:53:15;;;;;;;;;2.75;2.75;;;;;20.82;33.21;101173.94;5058228;28;45713;-42
2022/12/19 14:55:41;;;;;;;;;2.00;2.00;;;;;20.84;33.01;101179.97;5070053;28;45420;-42
2022/12/19 14:58:11;;;;;;;;;3.75;2.75;;;;;20.89;33.06;101174.47;5078697;28;45543;-43
2022/12/19 15:00:46;;;;;;;;;5.75;3.50;;;;;20.93;32.78;101170.75;5076449;28;46316;-45
2022/12/19 15:03:22;;;;;;;;;3.00;3.00;;;;;20.96;32.89;101175.00;5077148;27;45707;-42
2022/12/19 15:05:48;;;;;;;;;3.00;3.00;;;;;20.97;32.85;101163.53;5078618;27;45673;-44
2022/12/19 15:08:27;;;;;;;;;3.00;3.00;;;;;21.01;32.80;101152.75;5085787;27;45639;-47
2022/12/19 15:10:57;;;;;;;;;2.75;1.75;;;;;21.06;32.95;101164.84;5080929;28;46500;-45
2022/12/19 15:13:27;;;;;;;;;5.00;2.25;;;;;21.07;32.43;101145.47;5069467;27;45934;-44
2022/12/19 15:15:55;;;;;;;;;4.50;2.25;;;;;21.10;32.84;101146.16;5057576;28;45326;-42
2022/12/19 15:18:25;;;;;;;;;5.00;2.25;;;;;21.11;32.60;101133.84;5071903;28;45393;-41
2022/12/19 15:20:52;;;;;;;;;3.00;3.00;;;;;21.12;32.71;101133.75;5079007;27;47143;-45
2022/12/19 15:23:19;;;;;;;;;2.25;2.25;;;;;21.16;32.27;101132.66;5078060;27;45756;-42
2022/12/19 15:25:44;;;;;;;;;2.00;2.00;;;;;21.18;32.71;101145.75;5067528;27;46326;-45
2022/12/19 15:28:14;;;;;;;;;5.00;3.00;;;;;21.19;32.85;101147.47;5057952;28;45422;-45
2022/12/19 15:30:41;;;;;;;;;3.00;3.00;;;;;21.23;32.44;101151.63;5056885;28;48020;-46
2022/12/19 15:33:13;;;;;;;;;3.50;2.00;;;;;21.26;32.47;101159.38;5057620;28;45953;-46
2022/12/19 15:35:38;;;;;;;;;3.00;3.00;;;;;21.27;32.60;101157.59;5063013;28;45395;-46